Buckeye Village, Ohio
Current Conditions -  °F | °C
As of 3:52 PM on Tuesday 21 Oct 2014 (Local Time) from KMFD Reporting Station
Overcast Overcast  
Wind Chill: 39°   Ceiling: 2100
Heat Index: 46°   Visibility: 10mi
Dew Point: 41°   Wind: 16mph
Humidity: 83%   Direction: 330°NNW
Pressure: 30.01"   Gusts: NA
Location:  41.0654°N, 82.876°W
Report Text: KMFD 211952Z 33014KT 10SM OVC021 08/05 A3001 RMK AO2 SLP167 T00780050
Loading
Personal Weather Stations






























Interactive Weather Map
Tropical Storm Tracking
New forecast layout! Learn more

10-Day Weather Forecast

Advertisements
Track Severe Weather on mobile